Reedurban, Ohio
Current Conditions -  °F | °C
As of 9:51 PM on Sunday 23 Nov 2014 (Local Time) from KCAK Reporting Station
Light Rain Light Rain  
Wind Chill: 53°   Ceiling: 5500
Heat Index: 53°   Visibility: 7mi
Dew Point: 47°   Wind: 17mph
Humidity: 80%   Direction: 140°SE
Pressure: 29.51"   Gusts: 29mph
Location:  40.7898°N, 81.4236°W
Report Text: KCAK 240251Z 14015G25KT 7SM -RA BKN055 OVC080 12/08 A2951 RMK AO2 PRESFR SLP995 P0007 60011 T01170083 58045 $
Loading
Personal Weather Stations






























Interactive Weather Map New forecast layout! Learn more

10-Day Weather Forecast

Advertisements
Track Severe Weather on mobile